Time;durP1;ratioP1;P1;durP2;ratioP2;P2;SDS_P1;SDS_P2;PMS_P1;PMS_P2;Temp;Humidity;BMP_temperature;BMP_pressure;BME280_temperature;BME280_humidity;BME280_pressure;Samples;Min_cycle;Max_cycle;Signal;HPM_P1;HPM_P2
2021/12/03 00:00:38;;;;;;;9.60;3.40;;;0.00;99.90;;;;;;610929;232;26602;-77
2021/12/03 00:03:05;;;;;;;5.13;3.03;;;0.00;99.90;;;;;;610909;235;26873;-77
2021/12/03 00:05:32;;;;;;;5.17;3.70;;;-0.10;99.90;;;;;;610987;235;26859;-78
2021/12/03 00:08:00;;;;;;;7.23;3.50;;;0.00;99.90;;;;;;610663;235;26952;-78
2021/12/03 00:10:28;;;;;;;8.60;3.50;;;-0.20;99.90;;;;;;610699;235;26584;-77
2021/12/03 00:12:55;;;;;;;8.97;3.63;;;-0.40;99.90;;;;;;610665;235;26583;-77
2021/12/03 00:15:25;;;;;;;7.97;3.53;;;-0.30;99.90;;;;;;610668;235;26576;-77
2021/12/03 00:17:51;;;;;;;7.70;3.27;;;-0.30;99.90;;;;;;610468;235;26580;-77
2021/12/03 00:20:18;;;;;;;3.17;2.80;;;-0.10;99.90;;;;;;610632;235;26583;-78
2021/12/03 00:22:45;;;;;;;7.00;3.80;;;-0.10;99.90;;;;;;610654;235;26912;-77
2021/12/03 00:25:12;;;;;;;6.00;3.33;;;-0.20;99.90;;;;;;610407;235;26587;-77
2021/12/03 00:27:39;;;;;;;5.60;3.10;;;-0.10;99.90;;;;;;609470;235;26821;-78
2021/12/03 00:30:07;;;;;;;5.73;3.20;;;-0.20;99.90;;;;;;599534;239;26634;-78
2021/12/03 00:32:34;;;;;;;7.90;2.90;;;-0.30;99.90;;;;;;600676;237;26833;-78
2021/12/03 00:35:02;;;;;;;5.27;3.43;;;-0.30;99.90;;;;;;602622;235;26650;-78
2021/12/03 00:37:30;;;;;;;4.97;3.37;;;-0.30;99.90;;;;;;609248;235;26908;-80
2021/12/03 00:39:58;;;;;;;9.97;3.77;;;0.00;99.90;;;;;;599866;236;26573;-78
2021/12/03 00:42:28;;;;;;;8.83;3.40;;;0.00;99.90;;;;;;599976;237;26581;-78
2021/12/03 00:44:55;;;;;;;7.23;3.27;;;-0.10;99.90;;;;;;599301;237;26632;-78
2021/12/03 00:47:20;;;;;;;6.20;3.37;;;0.00;99.90;;;;;;600477;239;27088;-78
2021/12/03 00:49:48;;;;;;;4.80;3.10;;;0.10;99.90;;;;;;600525;239;26610;-78
2021/12/03 00:52:16;;;;;;;4.17;2.80;;;-0.10;99.90;;;;;;599378;238;26598;-79
2021/12/03 00:54:43;;;;;;;3.40;3.10;;;-0.10;99.90;;;;;;599926;239;26633;-78
2021/12/03 00:57:10;;;;;;;5.73;3.30;;;-0.30;99.90;;;;;;598890;239;26838;-78
2021/12/03 00:59:38;;;;;;;4.43;2.60;;;-0.30;99.90;;;;;;596462;237;26861;-78
2021/12/03 01:02:05;;;;;;;5.10;3.00;;;-0.40;99.90;;;;;;600001;236;26625;-78
2021/12/03 01:04:33;;;;;;;14.77;3.53;;;-0.10;99.90;;;;;;601495;238;27258;-78
2021/12/03 01:07:00;;;;;;;4.40;3.00;;;-0.10;99.90;;;;;;599965;238;27316;-78
2021/12/03 01:09:31;;;;;;;7.80;3.20;;;0.10;99.90;;;;;;601278;238;26652;-78
2021/12/03 01:11:56;;;;;;;7.13;3.17;;;0.20;99.90;;;;;;597875;237;26631;-78
2021/12/03 01:14:23;;;;;;;6.60;2.83;;;0.10;99.90;;;;;;596981;237;26661;-78
2021/12/03 01:16:50;;;;;;;5.90;2.97;;;0.30;99.90;;;;;;597121;240;26645;-78
2021/12/03 01:19:17;;;;;;;4.70;2.57;;;-0.10;99.90;;;;;;597740;240;27053;-78
2021/12/03 01:21:46;;;;;;;9.10;3.27;;;-0.10;99.90;;;;;;599629;238;26583;-78
2021/12/03 01:24:12;;;;;;;4.30;2.60;;;-0.10;99.90;;;;;;599517;239;26827;-78
2021/12/03 01:26:41;;;;;;;4.20;3.20;;;0.00;99.90;;;;;;599176;238;26595;-78
2021/12/03 01:29:08;;;;;;;6.20;3.30;;;-0.10;99.90;;;;;;599512;239;26657;-78
2021/12/03 01:31:35;;;;;;;6.27;3.10;;;-0.10;99.90;;;;;;599280;239;26643;-78
2021/12/03 01:34:02;;;;;;;8.87;2.80;;;-0.30;99.90;;;;;;599692;239;26639;-78
2021/12/03 01:36:29;;;;;;;14.17;3.20;;;-0.20;99.90;;;;;;599488;237;26881;-78
2021/12/03 01:38:57;;;;;;;4.00;3.10;;;0.10;99.90;;;;;;599538;239;26887;-78
2021/12/03 01:41:24;;;;;;;8.23;3.17;;;0.00;99.90;;;;;;599336;238;26853;-78
2021/12/03 01:43:52;;;;;;;5.20;3.20;;;0.10;99.90;;;;;;599093;239;26622;-78
2021/12/03 01:46:20;;;;;;;5.97;3.10;;;-0.20;99.90;;;;;;599324;233;26574;-78
2021/12/03 01:48:46;;;;;;;4.83;3.20;;;-0.20;99.90;;;;;;599242;239;26597;-78
2021/12/03 01:51:13;;;;;;;9.60;3.40;;;-0.20;99.90;;;;;;599076;239;26603;-78
2021/12/03 01:53:41;;;;;;;4.10;3.13;;;-0.20;99.90;;;;;;599278;239;26594;-78
2021/12/03 01:56:08;;;;;;;6.73;3.50;;;-0.20;99.90;;;;;;599042;239;26822;-78
2021/12/03 01:58:35;;;;;;;5.60;3.07;;;-0.20;99.90;;;;;;599569;239;26654;-78
2021/12/03 02:01:02;;;;;;;6.73;3.60;;;-0.20;99.90;;;;;;599396;239;26818;-78
2021/12/03 02:03:29;;;;;;;9.03;4.10;;;-0.10;99.90;;;;;;598973;239;26658;-78
2021/12/03 02:05:56;;;;;;;9.27;4.37;;;0.10;99.90;;;;;;599058;239;26853;-78
2021/12/03 02:08:24;;;;;;;3.67;3.07;;;0.00;99.90;;;;;;599085;238;26597;-78
2021/12/03 02:10:52;;;;;;;5.60;3.60;;;-0.10;99.90;;;;;;599228;238;26586;-78
2021/12/03 02:13:19;;;;;;;6.27;3.40;;;0.00;99.90;;;;;;600622;238;26620;-78
2021/12/03 02:15:46;;;;;;;6.57;3.43;;;0.00;99.90;;;;;;600391;237;27144;-78
2021/12/03 02:18:13;;;;;;;4.97;3.50;;;0.20;99.90;;;;;;593344;239;26593;-78
2021/12/03 02:20:46;;;;;;;4.43;3.40;;;0.20;99.90;;;;;;599985;237;26633;-78
2021/12/03 02:23:13;;;;;;;5.43;3.63;;;0.30;99.90;;;;;;601080;238;26635;-78
2021/12/03 02:25:40;;;;;;;5.93;3.67;;;0.30;99.90;;;;;;600833;238;26998;-78
2021/12/03 02:28:07;;;;;;;3.83;2.90;;;0.30;99.90;;;;;;600428;233;26630;-78
2021/12/03 02:30:34;;;;;;;3.90;3.60;;;0.50;99.90;;;;;;599567;238;27296;-79
2021/12/03 02:33:02;;;;;;;4.20;3.23;;;0.30;99.90;;;;;;599273;239;26583;-78
2021/12/03 02:35:29;;;;;;;3.73;3.13;;;0.20;99.90;;;;;;600664;239;26659;-78
2021/12/03 02:37:57;;;;;;;6.30;3.70;;;0.20;99.90;;;;;;599764;237;26623;-77
2021/12/03 02:40:24;;;;;;;4.80;3.80;;;0.20;99.90;;;;;;599885;238;26804;-78
2021/12/03 02:42:51;;;;;;;4.53;3.33;;;0.10;99.90;;;;;;600743;239;26571;-78
2021/12/03 02:45:18;;;;;;;3.93;3.40;;;0.20;99.90;;;;;;599383;238;27405;-78
2021/12/03 02:47:46;;;;;;;6.17;4.17;;;0.50;99.90;;;;;;600615;239;26651;-79
2021/12/03 02:50:14;;;;;;;4.50;4.10;;;0.30;99.90;;;;;;598131;234;26636;-78
2021/12/03 02:52:42;;;;;;;4.10;3.80;;;0.30;99.90;;;;;;600152;239;26871;-79
2021/12/03 02:55:09;;;;;;;5.10;3.63;;;0.50;99.90;;;;;;598488;237;26583;-78
2021/12/03 02:57:36;;;;;;;4.70;3.73;;;0.70;99.90;;;;;;598276;238;26685;-78
2021/12/03 03:00:04;;;;;;;3.77;3.47;;;0.60;99.90;;;;;;599227;238;26622;-79
2021/12/03 03:02:32;;;;;;;4.40;3.93;;;0.50;99.90;;;;;;599354;239;26825;-80
2021/12/03 03:05:00;;;;;;;6.33;3.67;;;0.70;99.90;;;;;;600386;239;26578;-78
2021/12/03 03:07:30;;;;;;;5.80;3.80;;;0.70;99.90;;;;;;596655;237;26680;-80
2021/12/03 03:09:55;;;;;;;6.67;3.40;;;0.60;99.90;;;;;;596502;239;26661;-80
2021/12/03 03:12:22;;;;;;;5.00;3.50;;;0.60;99.90;;;;;;596634;237;26627;-79
2021/12/03 03:14:51;;;;;;;4.87;3.47;;;0.30;99.90;;;;;;597102;240;26886;-80
2021/12/03 03:17:19;;;;;;;5.73;3.87;;;0.30;99.90;;;;;;599393;239;26664;-79
2021/12/03 03:19:46;;;;;;;4.13;3.40;;;0.20;99.90;;;;;;600019;238;26868;-79
2021/12/03 03:22:14;;;;;;;5.67;3.70;;;0.50;99.90;;;;;;599472;238;26628;-79
2021/12/03 03:24:42;;;;;;;6.37;3.50;;;0.40;99.90;;;;;;600194;238;26629;-80
2021/12/03 03:27:09;;;;;;;3.37;3.00;;;0.40;99.90;;;;;;600330;238;26829;-79
2021/12/03 03:29:36;;;;;;;4.40;3.20;;;0.40;99.90;;;;;;600235;238;26641;-79
2021/12/03 03:32:04;;;;;;;5.87;3.73;;;0.40;99.90;;;;;;600066;239;26874;-80
2021/12/03 03:34:31;;;;;;;4.07;3.67;;;0.40;99.90;;;;;;599930;239;26605;-80
2021/12/03 03:36:58;;;;;;;4.23;3.83;;;0.50;99.90;;;;;;599526;237;26652;-79
2021/12/03 03:39:26;;;;;;;3.80;3.40;;;0.40;99.90;;;;;;599803;237;26732;-79
2021/12/03 03:41:53;;;;;;;4.10;3.07;;;0.30;99.90;;;;;;599860;238;26579;-79
2021/12/03 03:44:20;;;;;;;3.70;3.30;;;0.30;99.90;;;;;;596808;240;26613;-79
2021/12/03 03:46:48;;;;;;;9.23;3.83;;;0.40;99.90;;;;;;596860;236;26968;-80
2021/12/03 03:49:15;;;;;;;6.10;3.37;;;0.30;99.90;;;;;;598746;240;26668;-80
2021/12/03 03:51:42;;;;;;;6.97;3.00;;;0.50;99.90;;;;;;599677;238;26624;-80
2021/12/03 03:54:10;;;;;;;5.43;3.00;;;0.70;99.90;;;;;;599383;239;26635;-79
2021/12/03 03:56:37;;;;;;;4.03;3.60;;;0.70;99.90;;;;;;599063;239;26871;-80
2021/12/03 03:59:04;;;;;;;3.67;3.37;;;0.90;99.90;;;;;;599490;239;26924;-79
2021/12/03 04:01:32;;;;;;;4.60;3.20;;;0.80;99.90;;;;;;598912;239;26884;-80
2021/12/03 04:03:59;;;;;;;4.83;3.80;;;0.50;99.90;;;;;;600420;239;26582;-80
2021/12/03 04:06:27;;;;;;;6.83;3.73;;;0.40;99.90;;;;;;600507;238;26656;-80
2021/12/03 04:08:55;;;;;;;4.73;4.33;;;0.40;99.90;;;;;;599031;234;26618;-80
2021/12/03 04:11:22;;;;;;;7.33;3.47;;;0.60;99.90;;;;;;599397;239;26629;-80
2021/12/03 04:13:49;;;;;;;4.17;3.57;;;0.50;99.90;;;;;;600391;239;26895;-80
2021/12/03 04:16:17;;;;;;;5.07;3.40;;;0.60;99.90;;;;;;598137;237;26554;-78
2021/12/03 04:18:45;;;;;;;5.87;3.63;;;0.70;99.90;;;;;;599740;238;26685;-79
2021/12/03 04:21:12;;;;;;;5.53;3.17;;;0.70;99.90;;;;;;599966;237;26606;-80
2021/12/03 04:23:39;;;;;;;9.17;3.53;;;1.10;99.90;;;;;;599249;239;26599;-81
2021/12/03 04:26:07;;;;;;;4.30;3.00;;;1.10;99.90;;;;;;599173;239;26824;-80
2021/12/03 04:28:34;;;;;;;3.53;3.23;;;1.20;99.90;;;;;;599287;238;26641;-80
2021/12/03 04:31:01;;;;;;;3.83;3.53;;;1.00;99.90;;;;;;598927;239;26622;-80
2021/12/03 04:33:29;;;;;;;4.90;3.80;;;0.90;99.90;;;;;;599413;239;26665;-80
2021/12/03 04:35:56;;;;;;;4.67;2.87;;;0.90;99.90;;;;;;596529;237;26872;-81
2021/12/03 04:38:23;;;;;;;3.87;2.73;;;1.00;99.90;;;;;;601165;237;26577;-80
2021/12/03 04:40:50;;;;;;;4.87;3.37;;;0.80;99.90;;;;;;600834;234;26908;-80
2021/12/03 04:43:18;;;;;;;4.90;3.43;;;0.50;99.90;;;;;;598200;237;26581;-81
2021/12/03 04:45:46;;;;;;;5.67;3.10;;;0.60;99.90;;;;;;600148;238;26614;-81
2021/12/03 04:48:14;;;;;;;4.50;3.27;;;0.50;99.90;;;;;;600797;239;26622;-80
2021/12/03 04:50:41;;;;;;;6.63;3.93;;;0.50;99.90;;;;;;599509;238;26644;-80
2021/12/03 04:53:08;;;;;;;6.23;3.13;;;0.70;99.90;;;;;;599672;239;27465;-80
2021/12/03 04:55:35;;;;;;;4.10;3.03;;;0.60;99.90;;;;;;599491;239;26587;-80
2021/12/03 04:58:02;;;;;;;6.67;3.57;;;0.70;99.90;;;;;;600640;239;26616;-80
2021/12/03 05:00:31;;;;;;;7.37;3.97;;;0.80;99.90;;;;;;597284;239;26585;-80
2021/12/03 05:03:00;;;;;;;4.17;3.20;;;0.80;99.90;;;;;;596941;235;26901;-80
2021/12/03 05:05:30;;;;;;;3.80;3.40;;;0.80;99.90;;;;;;596740;240;26587;-80
2021/12/03 05:07:57;;;;;;;3.87;3.33;;;0.80;99.90;;;;;;596660;240;26588;-78
2021/12/03 05:10:26;;;;;;;5.53;3.53;;;0.90;99.90;;;;;;596679;237;26576;-80
2021/12/03 05:12:53;;;;;;;3.70;3.20;;;0.90;99.90;;;;;;599182;236;26858;-80
2021/12/03 05:15:20;;;;;;;4.93;3.90;;;0.90;99.90;;;;;;600349;239;26568;-80
2021/12/03 05:17:47;;;;;;;9.50;3.30;;;0.70;99.90;;;;;;596912;239;26620;-79
2021/12/03 05:20:15;;;;;;;4.50;3.23;;;0.70;99.90;;;;;;599176;239;26598;-79
2021/12/03 05:22:42;;;;;;;5.10;3.30;;;0.70;99.90;;;;;;600451;239;26672;-80
2021/12/03 05:25:10;;;;;;;6.03;3.60;;;1.00;99.90;;;;;;599145;239;26595;-80
2021/12/03 05:27:38;;;;;;;8.47;3.73;;;0.90;99.90;;;;;;599149;239;26823;-80
2021/12/03 05:30:06;;;;;;;5.80;3.30;;;0.80;99.90;;;;;;599580;239;26650;-80
2021/12/03 05:32:33;;;;;;;6.37;3.93;;;0.80;99.90;;;;;;598987;238;26591;-80
2021/12/03 05:35:00;;;;;;;5.93;2.97;;;0.80;99.90;;;;;;596619;238;26630;-80
2021/12/03 05:37:28;;;;;;;6.53;3.50;;;0.50;99.90;;;;;;596606;236;26648;-80
2021/12/03 05:39:55;;;;;;;4.47;3.20;;;0.50;99.90;;;;;;596754;237;26678;-80
2021/12/03 05:42:23;;;;;;;6.20;3.70;;;0.30;99.90;;;;;;596634;238;26659;-80
2021/12/03 05:44:50;;;;;;;4.57;3.37;;;0.30;99.90;;;;;;596583;236;26856;-80
2021/12/03 05:47:17;;;;;;;3.80;3.50;;;0.30;99.90;;;;;;597453;239;26646;-79
2021/12/03 05:49:44;;;;;;;5.13;3.37;;;0.30;99.90;;;;;;597896;237;26603;-80
2021/12/03 05:52:12;;;;;;;4.67;3.60;;;0.40;99.90;;;;;;598097;237;26606;-81
2021/12/03 05:54:39;;;;;;;9.40;4.53;;;0.40;99.90;;;;;;598309;237;27250;-79
2021/12/03 05:57:07;;;;;;;4.77;4.27;;;0.40;99.90;;;;;;600218;239;26631;-80
2021/12/03 05:59:34;;;;;;;4.90;3.30;;;0.50;99.90;;;;;;599450;239;26902;-79
2021/12/03 06:02:01;;;;;;;4.37;3.67;;;0.50;99.90;;;;;;600061;239;26924;-80
2021/12/03 06:04:29;;;;;;;5.03;3.90;;;0.60;99.90;;;;;;599894;237;26634;-79
2021/12/03 06:06:55;;;;;;;4.93;3.50;;;0.60;99.90;;;;;;599387;239;26626;-79
2021/12/03 06:09:23;;;;;;;5.77;3.80;;;0.50;99.90;;;;;;599451;239;26663;-79
2021/12/03 06:11:51;;;;;;;5.30;3.67;;;0.50;99.90;;;;;;599309;237;26592;-79
2021/12/03 06:14:18;;;;;;;4.10;3.70;;;0.60;99.90;;;;;;598874;239;26623;-79
2021/12/03 06:16:45;;;;;;;4.53;3.90;;;0.40;99.90;;;;;;598952;238;26872;-80
2021/12/03 06:19:13;;;;;;;4.17;3.77;;;0.50;99.90;;;;;;599366;239;26665;-80
2021/12/03 06:21:41;;;;;;;7.23;4.07;;;0.40;99.90;;;;;;599018;237;26565;-79
2021/12/03 06:24:08;;;;;;;8.13;4.10;;;0.40;99.90;;;;;;599420;238;26598;-80
2021/12/03 06:26:35;;;;;;;5.37;4.13;;;0.40;99.90;;;;;;599433;239;26573;-80
2021/12/03 06:29:02;;;;;;;5.67;3.80;;;0.50;99.90;;;;;;599293;238;26956;-80
2021/12/03 06:31:30;;;;;;;4.03;3.70;;;0.60;99.90;;;;;;598970;239;26641;-80
2021/12/03 06:33:57;;;;;;;7.20;4.43;;;0.70;99.90;;;;;;599755;239;26594;-79
2021/12/03 06:36:25;;;;;;;5.97;4.50;;;0.40;99.90;;;;;;598930;238;26614;-79
2021/12/03 06:38:52;;;;;;;6.90;4.13;;;0.30;99.90;;;;;;599259;239;26934;-79
2021/12/03 06:41:19;;;;;;;7.37;4.17;;;0.30;99.90;;;;;;600469;239;26597;-79
2021/12/03 06:43:46;;;;;;;6.70;4.93;;;0.20;99.90;;;;;;597322;237;26887;-81
2021/12/03 06:46:14;;;;;;;9.60;4.73;;;0.40;99.90;;;;;;596579;238;26634;-80
2021/12/03 06:48:42;;;;;;;6.10;4.40;;;0.50;99.90;;;;;;597242;236;26660;-79
2021/12/03 06:51:09;;;;;;;6.73;4.23;;;0.50;99.90;;;;;;599130;240;26832;-79
2021/12/03 06:53:42;;;;;;;8.33;4.90;;;0.70;99.90;;;;;;599351;238;26632;-79
2021/12/03 06:56:08;;;;;;;6.80;4.50;;;0.80;99.90;;;;;;599154;239;26623;-80
2021/12/03 06:58:33;;;;;;;7.87;4.23;;;0.50;99.90;;;;;;600441;238;26888;-79
2021/12/03 07:01:00;;;;;;;9.27;4.70;;;0.40;99.90;;;;;;605350;235;26593;-82
2021/12/03 07:03:27;;;;;;;6.30;4.77;;;0.40;99.90;;;;;;600873;236;26579;-83
2021/12/03 07:05:55;;;;;;;5.67;4.47;;;0.50;99.90;;;;;;602862;235;26609;-82
2021/12/03 07:08:22;;;;;;;7.53;4.80;;;0.40;99.90;;;;;;603849;236;26659;-82
2021/12/03 07:10:50;;;;;;;7.50;4.57;;;0.70;99.90;;;;;;604420;236;26656;-82
2021/12/03 07:13:17;;;;;;;7.77;4.77;;;0.60;99.90;;;;;;602509;236;27306;-82
2021/12/03 07:15:45;;;;;;;5.40;4.77;;;0.70;99.90;;;;;;600923;236;26634;-82
2021/12/03 07:18:12;;;;;;;11.17;5.43;;;0.70;99.90;;;;;;601059;236;26840;-82
2021/12/03 07:20:39;;;;;;;6.67;5.33;;;0.90;99.90;;;;;;604504;236;26641;-82
2021/12/03 07:23:07;;;;;;;6.50;5.07;;;1.00;99.90;;;;;;599854;239;26579;-82
2021/12/03 07:25:34;;;;;;;7.53;4.63;;;1.00;99.90;;;;;;600980;238;26629;-82
2021/12/03 07:28:01;;;;;;;8.27;5.03;;;1.20;99.90;;;;;;600884;239;26606;-82
2021/12/03 07:30:31;;;;;;;7.23;4.90;;;1.40;99.90;;;;;;601307;236;26890;-82
2021/12/03 07:32:57;;;;;;;9.63;6.03;;;1.90;99.90;;;;;;606874;234;26681;-82
2021/12/03 07:35:25;;;;;;;5.17;4.67;;;1.50;99.90;;;;;;600097;236;26638;-83
2021/12/03 07:37:52;;;;;;;10.90;5.67;;;1.50;99.90;;;;;;601917;237;26595;-82
2021/12/03 07:40:20;;;;;;;6.40;5.17;;;1.20;99.90;;;;;;604195;236;26604;-82
2021/12/03 07:42:48;;;;;;;9.77;5.43;;;1.30;99.90;;;;;;598631;238;26613;-82
2021/12/03 07:45:16;;;;;;;8.70;6.10;;;1.30;99.90;;;;;;598769;237;26848;-83
2021/12/03 07:47:42;;;;;;;9.73;5.50;;;1.30;99.90;;;;;;599089;238;26576;-82
2021/12/03 07:50:10;;;;;;;8.97;5.07;;;1.50;99.90;;;;;;599097;238;26813;-82
2021/12/03 07:52:38;;;;;;;7.87;5.13;;;1.40;99.90;;;;;;598864;237;26853;-83
2021/12/03 07:55:06;;;;;;;6.57;5.33;;;1.60;99.90;;;;;;598599;239;26607;-83
2021/12/03 07:57:33;;;;;;;10.50;5.60;;;1.50;99.90;;;;;;598284;238;26871;-83
2021/12/03 08:00:00;;;;;;;12.37;6.17;;;1.60;99.90;;;;;;598679;237;26593;-82
2021/12/03 08:02:27;;;;;;;7.37;5.00;;;1.60;99.90;;;;;;598909;239;26821;-83
2021/12/03 08:04:55;;;;;;;10.37;5.57;;;1.90;99.90;;;;;;598722;239;26579;-82
2021/12/03 08:07:27;;;;;;;7.20;5.30;;;1.90;99.90;;;;;;598867;238;26572;-84
2021/12/03 08:09:54;;;;;;;10.23;7.90;;;1.90;99.90;;;;;;601645;234;26631;-82
2021/12/03 08:12:22;;;;;;;8.90;5.97;;;1.80;99.90;;;;;;611732;235;26636;-86
2021/12/03 08:14:50;;;;;;;8.10;5.47;;;2.10;99.90;;;;;;603498;235;26634;-82
2021/12/03 08:17:17;;;;;;;10.43;7.13;;;2.10;99.90;;;;;;610977;235;26820;-84
2021/12/03 08:19:44;;;;;;;6.87;5.23;;;2.20;99.90;;;;;;610983;235;26615;-83
2021/12/03 08:22:11;;;;;;;8.87;6.03;;;2.00;99.90;;;;;;606347;234;26982;-84
2021/12/03 08:24:38;;;;;;;7.70;5.63;;;2.10;99.90;;;;;;598909;232;26623;-82
2021/12/03 08:27:06;;;;;;;7.27;5.13;;;2.20;99.90;;;;;;596319;239;26653;-82
2021/12/03 08:29:34;;;;;;;10.90;6.63;;;2.30;99.90;;;;;;594838;239;26584;-82
2021/12/03 08:32:01;;;;;;;7.77;5.27;;;2.30;99.90;;;;;;606596;235;26649;-77
2021/12/03 08:34:28;;;;;;;10.00;5.73;;;2.50;99.90;;;;;;610582;235;26785;-79
2021/12/03 08:36:55;;;;;;;6.37;5.43;;;2.80;99.90;;;;;;610631;235;26844;-80
2021/12/03 08:39:22;;;;;;;9.33;5.60;;;2.40;99.90;;;;;;610613;235;26612;-80
2021/12/03 08:41:50;;;;;;;6.20;5.10;;;2.30;99.90;;;;;;610692;235;26544;-81
2021/12/03 08:44:17;;;;;;;6.27;5.53;;;2.20;99.90;;;;;;610679;235;26573;-78
2021/12/03 08:46:46;;;;;;;7.93;4.93;;;2.30;99.90;;;;;;610501;235;26600;-79
2021/12/03 08:49:17;;;;;;;7.93;5.53;;;2.10;99.90;;;;;;604905;234;26606;-80
2021/12/03 08:51:52;;;;;;;10.10;6.30;;;2.30;99.90;;;;;;599294;239;26601;-79
2021/12/03 08:56:46;;;;;;;8.83;5.03;;;2.00;99.90;;;;;;598841;239;26578;-80
2021/12/03 08:59:15;;;;;;;8.97;5.17;;;2.40;99.90;;;;;;599034;237;26645;-79
2021/12/03 09:01:42;;;;;;;6.07;5.47;;;2.60;99.90;;;;;;599162;238;26562;-79
2021/12/03 09:04:09;;;;;;;5.10;4.60;;;2.50;99.90;;;;;;602064;238;26885;-79
2021/12/03 09:06:37;;;;;;;6.77;5.13;;;2.60;99.90;;;;;;601533;238;26622;-80
2021/12/03 09:09:06;;;;;;;8.13;5.00;;;3.00;99.90;;;;;;596613;238;26632;-77
2021/12/03 09:11:31;;;;;;;7.07;4.87;;;2.70;99.90;;;;;;598872;239;26602;-77
2021/12/03 09:14:02;;;;;;;6.77;4.70;;;2.60;99.90;;;;;;601310;238;26567;-78
2021/12/03 09:16:26;;;;;;;7.33;4.83;;;2.80;99.90;;;;;;598937;239;26598;-78
2021/12/03 09:18:55;;;;;;;7.43;4.80;;;3.00;99.90;;;;;;600373;237;26640;-77
2021/12/03 09:21:27;;;;;;;6.53;4.93;;;2.90;99.90;;;;;;600952;234;26620;-78
2021/12/03 09:24:02;;;;;;;7.03;4.70;;;2.90;99.90;;;;;;600495;238;26799;-78
2021/12/03 09:26:19;;;;;;;6.43;5.00;;;2.90;99.90;;;;;;599695;238;26602;-77
2021/12/03 09:28:46;;;;;;;5.40;4.10;;;2.80;99.90;;;;;;600503;238;26637;-78
2021/12/03 09:31:16;;;;;;;6.27;4.43;;;2.70;99.90;;;;;;599649;239;26610;-77
2021/12/03 09:33:44;;;;;;;5.20;4.20;;;2.60;99.90;;;;;;599993;239;26555;-77
2021/12/03 09:36:09;;;;;;;8.80;4.37;;;2.90;99.90;;;;;;600194;239;26624;-77
2021/12/03 09:38:36;;;;;;;6.97;4.83;;;2.90;99.90;;;;;;600019;236;27299;-77
2021/12/03 09:41:05;;;;;;;7.77;4.93;;;3.00;99.90;;;;;;599916;236;26586;-78
2021/12/03 09:43:31;;;;;;;6.33;4.67;;;3.00;99.90;;;;;;599641;238;26582;-78
2021/12/03 09:46:08;;;;;;;7.37;4.73;;;3.30;99.90;;;;;;599719;237;26619;-78
2021/12/03 09:48:38;;;;;;;4.60;4.20;;;3.30;99.90;;;;;;598952;239;26860;-78
2021/12/03 09:50:55;;;;;;;6.63;4.60;;;3.40;99.90;;;;;;599299;239;26586;-78
2021/12/03 09:53:44;;;;;;;7.43;4.13;;;3.10;99.90;;;;;;600834;238;26584;-79
2021/12/03 09:55:55;;;;;;;6.13;5.20;;;3.10;99.90;;;;;;600057;239;26591;-79
2021/12/03 09:58:44;;;;;;;7.83;4.57;;;3.20;99.90;;;;;;600943;238;27132;-78
2021/12/03 10:00:58;;;;;;;5.47;4.60;;;3.10;99.90;;;;;;599170;239;26801;-78
2021/12/03 10:03:35;;;;;;;5.43;4.33;;;3.10;99.90;;;;;;599678;236;26598;-79
2021/12/03 10:07:18;;;;;;;6.17;4.60;;;3.10;99.90;;;;;;606729;236;26886;-76
2021/12/03 10:09:34;;;;;;;6.03;4.07;;;2.90;99.90;;;;;;608003;236;26612;-77
2021/12/03 10:11:39;;;;;;;6.30;5.00;;;2.90;99.90;;;;;;608697;233;26595;-76
2021/12/03 10:17:37;;;;;;;6.30;4.57;;;2.90;99.90;;;;;;609178;235;26619;-79
2021/12/03 10:19:02;;;;;;;7.03;5.33;;;3.30;99.90;;;;;;603898;236;26664;-78
2021/12/03 10:24:40;;;;;;;9.77;6.57;;;3.70;99.90;;;;;;607649;236;26649;-78
2021/12/03 10:27:20;;;;;;;5.67;4.63;;;3.80;99.90;;;;;;611799;235;26667;-79
2021/12/03 10:29:33;;;;;;;10.03;5.00;;;3.80;99.90;;;;;;608875;235;27237;-76
2021/12/03 10:34:55;;;;;;;6.83;3.70;;;4.50;99.90;;;;;;602954;232;26662;-80
2021/12/03 10:39:51;;;;;;;7.53;3.97;;;4.80;99.90;;;;;;599781;238;26673;-79
2021/12/03 10:42:28;;;;;;;4.23;3.83;;;4.40;99.90;;;;;;599060;239;26637;-79
2021/12/03 10:45:08;;;;;;;5.53;4.33;;;4.00;99.90;;;;;;598588;239;26863;-79
2021/12/03 10:47:42;;;;;;;6.33;4.20;;;3.60;99.90;;;;;;598927;239;26663;-79
2021/12/03 10:50:12;;;;;;;8.33;4.43;;;3.40;99.90;;;;;;599207;237;26894;-80
2021/12/03 10:52:38;;;;;;;6.93;4.37;;;3.50;99.90;;;;;;598436;239;26589;-80
2021/12/03 10:55:26;;;;;;;8.10;6.43;;;3.60;99.90;;;;;;598444;239;26831;-77
2021/12/03 10:58:20;;;;;;;4.93;4.40;;;3.60;99.90;;;;;;598530;239;26874;-77
2021/12/03 11:03:59;;;;;;;7.90;4.57;;;3.60;99.90;;;;;;599039;238;26631;-78
2021/12/03 11:11:43;;;;;;;5.73;4.10;;;3.50;99.90;;;;;;600167;238;26894;-78
2021/12/03 11:19:26;;;;;;;6.37;4.53;;;3.70;99.90;;;;;;598670;239;26867;-78
2021/12/03 11:22:02;;;;;;;7.13;4.30;;;3.70;99.90;;;;;;598102;239;26574;-78
2021/12/03 11:27:20;;;;;;;4.90;4.20;;;3.60;99.90;;;;;;600261;238;26638;-78
2021/12/03 11:29:23;;;;;;;5.80;4.70;;;3.90;99.90;;;;;;597861;238;26617;-78
2021/12/03 11:33:34;;;;;;;7.40;4.77;;;3.90;99.90;;;;;;598097;239;26586;-77
2021/12/03 11:34:39;;;;;;;4.93;4.53;;;4.00;99.90;;;;;;600480;238;26633;-78
2021/12/03 11:43:05;;;;;;;6.20;4.40;;;4.10;99.90;;;;;;596812;238;26653;-77
2021/12/03 11:45:28;;;;;;;5.80;4.27;;;4.10;99.90;;;;;;600146;237;27304;-79
2021/12/03 11:48:30;;;;;;;8.67;3.93;;;4.30;99.90;;;;;;599383;238;26660;-79
2021/12/03 11:54:27;;;;;;;4.93;4.30;;;4.50;99.90;;;;;;590970;237;26644;-78
2021/12/03 12:01:41;;;;;;;6.70;4.50;;;4.50;99.90;;;;;;603005;237;26601;-78
2021/12/03 12:20:07;;;;;;;5.80;4.77;;;4.40;99.90;;;;;;595585;239;26891;-79
2021/12/03 12:23:33;;;;;;;5.40;4.10;;;4.50;99.90;;;;;;597773;239;26858;-78
2021/12/03 12:25:09;;;;;;;6.00;4.47;;;4.40;99.90;;;;;;597513;239;26873;-79
2021/12/03 12:28:36;;;;;;;6.07;4.30;;;4.20;99.90;;;;;;598437;238;26877;-78
2021/12/03 12:35:47;;;;;;;9.50;4.87;;;4.80;99.90;;;;;;601792;235;27459;-79
2021/12/03 12:40:53;;;;;;;5.70;4.50;;;4.90;99.90;;;;;;610058;236;26636;-81
2021/12/03 12:59:56;;;;;;;4.97;4.07;;;4.50;99.90;;;;;;598020;237;26685;-79
2021/12/03 13:02:16;;;;;;;4.97;4.10;;;4.60;99.90;;;;;;598783;240;26638;-79
2021/12/03 13:12:04;;;;;;;7.00;4.50;;;4.70;99.90;;;;;;610581;235;26656;-79
2021/12/03 13:14:51;;;;;;;7.27;3.70;;;4.50;99.90;;;;;;597597;238;26633;-79
2021/12/03 13:19:53;;;;;;;6.57;4.03;;;4.40;99.90;;;;;;599193;239;26610;-81
2021/12/03 13:30:27;;;;;;;6.93;4.37;;;4.60;99.90;;;;;;599735;237;26582;-81
2021/12/03 13:56:51;;;;;;;7.87;5.90;;;4.40;99.90;;;;;;613008;235;26657;-81
2021/12/03 14:03:01;;;;;;;8.57;5.97;;;4.30;99.90;;;;;;609432;235;26607;-81
2021/12/03 14:04:58;;;;;;;7.37;5.33;;;4.10;99.90;;;;;;608881;234;26665;-81
2021/12/03 14:09:52;;;;;;;6.13;5.33;;;3.90;99.90;;;;;;608600;232;26665;-79
2021/12/03 14:25:11;;;;;;;9.10;6.63;;;3.50;99.90;;;;;;594042;238;26626;-82
2021/12/03 14:38:53;;;;;;;14.00;7.77;;;3.70;99.90;;;;;;612047;234;26881;-81
2021/12/03 14:41:25;;;;;;;10.43;7.73;;;3.70;99.90;;;;;;610953;234;26583;-81
2021/12/03 14:44:11;;;;;;;10.90;7.70;;;3.80;99.90;;;;;;602056;238;26657;-81
2021/12/03 14:49:36;;;;;;;8.87;7.93;;;3.90;99.90;;;;;;603937;236;26662;-81
2021/12/03 14:52:00;;;;;;;10.77;7.93;;;3.90;99.90;;;;;;609426;236;26591;-81
2021/12/03 14:54:35;;;;;;;11.40;7.70;;;3.70;99.90;;;;;;609778;236;26852;-80
2021/12/03 14:57:06;;;;;;;9.67;8.03;;;3.70;99.90;;;;;;609563;236;26576;-81
2021/12/03 14:59:34;;;;;;;12.47;8.63;;;3.70;99.90;;;;;;598092;236;26616;-78
2021/12/03 15:05:03;;;;;;;12.17;8.57;;;3.50;99.90;;;;;;594147;238;26847;-78
2021/12/03 15:07:27;;;;;;;10.20;8.07;;;3.50;99.90;;;;;;598408;239;26586;-79
2021/12/03 15:09:52;;;;;;;11.03;8.27;;;3.60;99.90;;;;;;598885;239;26634;-79
2021/12/03 15:15:41;;;;;;;8.93;7.50;;;3.40;99.90;;;;;;597012;239;26884;-78
2021/12/03 15:20:43;;;;;;;12.83;8.73;;;3.50;99.90;;;;;;598676;236;26645;-78
2021/12/03 15:25:29;;;;;;;11.50;7.70;;;3.40;99.90;;;;;;603623;236;26645;-81
2021/12/03 15:28:30;;;;;;;13.33;8.30;;;3.50;99.90;;;;;;610827;234;26641;-81
2021/12/03 15:30:46;;;;;;;9.57;7.73;;;3.50;99.90;;;;;;604005;235;26644;-80
2021/12/03 15:33:09;;;;;;;10.17;7.90;;;3.40;99.90;;;;;;604153;237;26853;-80
2021/12/03 15:35:48;;;;;;;9.30;6.83;;;3.60;99.90;;;;;;605746;237;26835;-80
2021/12/03 15:38:20;;;;;;;11.27;7.90;;;3.50;99.90;;;;;;604955;235;26875;-81
2021/12/03 15:40:54;;;;;;;10.80;8.67;;;3.40;99.90;;;;;;605330;234;26673;-80
2021/12/03 15:56:55;;;;;;;9.87;7.40;;;3.50;99.90;;;;;;602950;233;27050;-80
2021/12/03 16:04:02;;;;;;;9.23;8.20;;;3.30;99.90;;;;;;608339;235;26585;-79
2021/12/03 16:06:29;;;;;;;13.63;8.37;;;3.20;99.90;;;;;;605347;236;26642;-79
2021/12/03 16:09:01;;;;;;;11.83;8.10;;;3.20;99.90;;;;;;605400;235;26628;-79